sensor_id;sensor_type;location;lat;lon;timestamp;temperature;humidity
14401;DHT22;7285;50.894;5.462;2023-04-10T00:01:14;8.60;99.90
14401;DHT22;7285;50.894;5.462;2023-04-10T00:03:41;8.60;99.90
14401;DHT22;7285;50.894;5.462;2023-04-10T00:06:08;8.50;99.90
14401;DHT22;7285;50.894;5.462;2023-04-10T00:08:36;8.50;99.90
14401;DHT22;7285;50.894;5.462;2023-04-10T00:11:04;8.50;99.90
14401;DHT22;7285;50.894;5.462;2023-04-10T00:13:31;8.50;99.90
14401;DHT22;7285;50.894;5.462;2023-04-10T00:15:58;8.50;99.90
14401;DHT22;7285;50.894;5.462;2023-04-10T00:18:25;8.50;99.90
14401;DHT22;7285;50.894;5.462;2023-04-10T00:20:53;8.50;99.90
14401;DHT22;7285;50.894;5.462;2023-04-10T00:23:20;8.50;99.90
14401;DHT22;7285;50.894;5.462;2023-04-10T00:25:49;8.50;99.90
14401;DHT22;7285;50.894;5.462;2023-04-10T00:28:15;8.50;99.90
14401;DHT22;7285;50.894;5.462;2023-04-10T00:30:42;8.50;99.90
14401;DHT22;7285;50.894;5.462;2023-04-10T00:33:10;8.40;99.90
14401;DHT22;7285;50.894;5.462;2023-04-10T00:35:36;8.40;99.90
14401;DHT22;7285;50.894;5.462;2023-04-10T00:38:03;8.30;99.90
14401;DHT22;7285;50.894;5.462;2023-04-10T00:40:30;8.20;99.90
14401;DHT22;7285;50.894;5.462;2023-04-10T00:43:02;8.20;99.90
14401;DHT22;7285;50.894;5.462;2023-04-10T00:45:29;8.20;99.90
14401;DHT22;7285;50.894;5.462;2023-04-10T00:47:56;8.20;99.90
14401;DHT22;7285;50.894;5.462;2023-04-10T00:50:23;8.10;99.90
14401;DHT22;7285;50.894;5.462;2023-04-10T00:52:50;8.10;99.90
14401;DHT22;7285;50.894;5.462;2023-04-10T00:55:18;8.00;99.90
14401;DHT22;7285;50.894;5.462;2023-04-10T00:57:45;8.00;99.90
14401;DHT22;7285;50.894;5.462;2023-04-10T01:00:15;8.00;99.90
14401;DHT22;7285;50.894;5.462;2023-04-10T01:02:42;8.10;99.90
14401;DHT22;7285;50.894;5.462;2023-04-10T01:05:11;8.00;99.90
14401;DHT22;7285;50.894;5.462;2023-04-10T01:07:50;8.00;99.90
14401;DHT22;7285;50.894;5.462;2023-04-10T01:10:27;8.00;99.90
14401;DHT22;7285;50.894;5.462;2023-04-10T01:13:05;8.00;99.90
14401;DHT22;7285;50.894;5.462;2023-04-10T01:15:41;7.90;99.90
14401;DHT22;7285;50.894;5.462;2023-04-10T01:18:16;7.90;99.90
14401;DHT22;7285;50.894;5.462;2023-04-10T01:20:45;7.80;99.90
14401;DHT22;7285;50.894;5.462;2023-04-10T01:23:36;7.80;99.90
14401;DHT22;7285;50.894;5.462;2023-04-10T01:26:09;7.80;1.00
14401;DHT22;7285;50.894;5.462;2023-04-10T01:28:58;7.70;1.00
14401;DHT22;7285;50.894;5.462;2023-04-10T01:31:32;7.70;99.90
14401;DHT22;7285;50.894;5.462;2023-04-10T01:34:05;7.70;99.90
14401;DHT22;7285;50.894;5.462;2023-04-10T01:36:35;7.60;1.00
14401;DHT22;7285;50.894;5.462;2023-04-10T01:39:04;7.50;1.00
14401;DHT22;7285;50.894;5.462;2023-04-10T01:41:32;7.50;1.00
14401;DHT22;7285;50.894;5.462;2023-04-10T01:44:02;7.40;1.00
14401;DHT22;7285;50.894;5.462;2023-04-10T01:46:31;7.30;1.00
14401;DHT22;7285;50.894;5.462;2023-04-10T01:49:00;7.30;1.00
14401;DHT22;7285;50.894;5.462;2023-04-10T01:51:29;7.20;1.00
14401;DHT22;7285;50.894;5.462;2023-04-10T01:53:58;7.20;1.00
14401;DHT22;7285;50.894;5.462;2023-04-10T01:56:26;7.10;1.00
14401;DHT22;7285;50.894;5.462;2023-04-10T01:58:53;7.10;1.00
14401;DHT22;7285;50.894;5.462;2023-04-10T02:01:22;7.10;1.00
14401;DHT22;7285;50.894;5.462;2023-04-10T02:03:48;7.10;1.00
14401;DHT22;7285;50.894;5.462;2023-04-10T02:06:23;7.20;1.00
14401;DHT22;7285;50.894;5.462;2023-04-10T02:08:55;7.20;1.00
14401;DHT22;7285;50.894;5.462;2023-04-10T02:11:38;7.30;1.00
14401;DHT22;7285;50.894;5.462;2023-04-10T02:14:10;7.30;1.00
14401;DHT22;7285;50.894;5.462;2023-04-10T02:16:39;7.30;1.00
14401;DHT22;7285;50.894;5.462;2023-04-10T02:19:09;7.30;1.00
14401;DHT22;7285;50.894;5.462;2023-04-10T02:21:36;7.30;1.00
14401;DHT22;7285;50.894;5.462;2023-04-10T02:24:05;7.30;1.00
14401;DHT22;7285;50.894;5.462;2023-04-10T02:26:43;7.30;1.00
14401;DHT22;7285;50.894;5.462;2023-04-10T02:29:10;7.30;1.00
14401;DHT22;7285;50.894;5.462;2023-04-10T02:31:38;7.30;1.00
14401;DHT22;7285;50.894;5.462;2023-04-10T02:34:05;7.30;1.00
14401;DHT22;7285;50.894;5.462;2023-04-10T02:36:33;7.30;1.00
14401;DHT22;7285;50.894;5.462;2023-04-10T02:39:00;7.30;1.00
14401;DHT22;7285;50.894;5.462;2023-04-10T02:41:28;7.30;1.00
14401;DHT22;7285;50.894;5.462;2023-04-10T02:43:55;7.30;1.00
14401;DHT22;7285;50.894;5.462;2023-04-10T02:46:22;7.30;1.00
14401;DHT22;7285;50.894;5.462;2023-04-10T02:48:50;7.30;1.00
14401;DHT22;7285;50.894;5.462;2023-04-10T02:51:18;7.40;1.00
14401;DHT22;7285;50.894;5.462;2023-04-10T02:53:45;7.40;1.00
14401;DHT22;7285;50.894;5.462;2023-04-10T02:56:11;7.40;1.00
14401;DHT22;7285;50.894;5.462;2023-04-10T02:58:38;7.40;1.00
14401;DHT22;7285;50.894;5.462;2023-04-10T03:01:10;7.40;1.00
14401;DHT22;7285;50.894;5.462;2023-04-10T03:03:36;7.40;1.00
14401;DHT22;7285;50.894;5.462;2023-04-10T03:06:06;7.40;1.00
14401;DHT22;7285;50.894;5.462;2023-04-10T03:08:33;7.40;1.00
14401;DHT22;7285;50.894;5.462;2023-04-10T03:11:00;7.40;1.00
14401;DHT22;7285;50.894;5.462;2023-04-10T03:13:27;7.40;1.00
14401;DHT22;7285;50.894;5.462;2023-04-10T03:15:54;7.30;1.00
14401;DHT22;7285;50.894;5.462;2023-04-10T03:18:21;7.30;1.00
14401;DHT22;7285;50.894;5.462;2023-04-10T03:20:48;7.20;1.00
14401;DHT22;7285;50.894;5.462;2023-04-10T03:23:16;7.10;1.00
14401;DHT22;7285;50.894;5.462;2023-04-10T03:25:43;7.10;1.00
14401;DHT22;7285;50.894;5.462;2023-04-10T03:28:10;7.00;1.00
14401;DHT22;7285;50.894;5.462;2023-04-10T03:30:37;7.00;1.00
14401;DHT22;7285;50.894;5.462;2023-04-10T03:33:04;7.00;1.00
14401;DHT22;7285;50.894;5.462;2023-04-10T03:35:31;7.00;1.00
14401;DHT22;7285;50.894;5.462;2023-04-10T03:37:58;7.00;1.00
14401;DHT22;7285;50.894;5.462;2023-04-10T03:40:26;7.00;1.00
14401;DHT22;7285;50.894;5.462;2023-04-10T03:42:53;7.00;1.00
14401;DHT22;7285;50.894;5.462;2023-04-10T03:45:20;7.00;1.00
14401;DHT22;7285;50.894;5.462;2023-04-10T03:47:47;7.00;1.00
14401;DHT22;7285;50.894;5.462;2023-04-10T03:50:14;7.00;1.00
14401;DHT22;7285;50.894;5.462;2023-04-10T03:52:41;7.00;1.00
14401;DHT22;7285;50.894;5.462;2023-04-10T03:55:08;7.10;1.00
14401;DHT22;7285;50.894;5.462;2023-04-10T03:57:37;7.10;1.00
14401;DHT22;7285;50.894;5.462;2023-04-10T04:00:04;7.10;1.00
14401;DHT22;7285;50.894;5.462;2023-04-10T04:02:32;7.10;1.00
14401;DHT22;7285;50.894;5.462;2023-04-10T04:04:59;7.20;1.00
14401;DHT22;7285;50.894;5.462;2023-04-10T04:07:26;7.10;1.00
14401;DHT22;7285;50.894;5.462;2023-04-10T04:09:53;7.20;1.00
14401;DHT22;7285;50.894;5.462;2023-04-10T04:12:20;7.10;1.00
14401;DHT22;7285;50.894;5.462;2023-04-10T04:14:48;7.00;1.00
14401;DHT22;7285;50.894;5.462;2023-04-10T04:17:15;7.00;1.00
14401;DHT22;7285;50.894;5.462;2023-04-10T04:19:42;7.00;1.00
14401;DHT22;7285;50.894;5.462;2023-04-10T04:22:10;7.00;1.00
14401;DHT22;7285;50.894;5.462;2023-04-10T04:24:37;6.90;1.00
14401;DHT22;7285;50.894;5.462;2023-04-10T04:27:04;6.90;1.00
14401;DHT22;7285;50.894;5.462;2023-04-10T04:29:30;6.90;1.00
14401;DHT22;7285;50.894;5.462;2023-04-10T04:31:59;7.00;1.00
14401;DHT22;7285;50.894;5.462;2023-04-10T04:34:26;6.90;1.00
14401;DHT22;7285;50.894;5.462;2023-04-10T04:36:53;6.90;1.00
14401;DHT22;7285;50.894;5.462;2023-04-10T04:39:19;6.90;1.00
14401;DHT22;7285;50.894;5.462;2023-04-10T04:41:47;6.90;1.00
14401;DHT22;7285;50.894;5.462;2023-04-10T04:44:15;6.90;1.00
14401;DHT22;7285;50.894;5.462;2023-04-10T04:46:42;6.90;1.00
14401;DHT22;7285;50.894;5.462;2023-04-10T04:49:10;6.90;1.00
14401;DHT22;7285;50.894;5.462;2023-04-10T04:51:37;6.90;99.90
14401;DHT22;7285;50.894;5.462;2023-04-10T04:54:04;6.80;1.00
14401;DHT22;7285;50.894;5.462;2023-04-10T04:56:31;6.80;1.00
14401;DHT22;7285;50.894;5.462;2023-04-10T04:58:57;6.70;1.00
14401;DHT22;7285;50.894;5.462;2023-04-10T05:01:24;6.70;1.00
14401;DHT22;7285;50.894;5.462;2023-04-10T05:03:51;6.70;1.00
14401;DHT22;7285;50.894;5.462;2023-04-10T05:06:20;6.60;1.00
14401;DHT22;7285;50.894;5.462;2023-04-10T05:08:46;6.70;1.00
14401;DHT22;7285;50.894;5.462;2023-04-10T05:11:13;6.60;1.00
14401;DHT22;7285;50.894;5.462;2023-04-10T05:13:40;6.60;1.00
14401;DHT22;7285;50.894;5.462;2023-04-10T05:16:07;6.60;1.00
14401;DHT22;7285;50.894;5.462;2023-04-10T05:18:35;6.60;1.00
14401;DHT22;7285;50.894;5.462;2023-04-10T05:21:02;6.70;1.00
14401;DHT22;7285;50.894;5.462;2023-04-10T05:23:30;6.70;1.00
14401;DHT22;7285;50.894;5.462;2023-04-10T05:25:57;6.80;1.00
14401;DHT22;7285;50.894;5.462;2023-04-10T05:28:24;6.80;1.00
14401;DHT22;7285;50.894;5.462;2023-04-10T05:30:51;6.80;1.00
14401;DHT22;7285;50.894;5.462;2023-04-10T05:33:18;6.90;1.00
14401;DHT22;7285;50.894;5.462;2023-04-10T05:35:45;6.90;1.00
14401;DHT22;7285;50.894;5.462;2023-04-10T05:38:12;7.00;1.00
14401;DHT22;7285;50.894;5.462;2023-04-10T05:40:44;7.10;1.00
14401;DHT22;7285;50.894;5.462;2023-04-10T05:43:11;7.20;1.00
14401;DHT22;7285;50.894;5.462;2023-04-10T05:45:38;7.20;1.00
14401;DHT22;7285;50.894;5.462;2023-04-10T05:48:05;7.30;1.00
14401;DHT22;7285;50.894;5.462;2023-04-10T05:50:34;7.30;1.00
14401;DHT22;7285;50.894;5.462;2023-04-10T05:53:01;7.50;1.00
14401;DHT22;7285;50.894;5.462;2023-04-10T05:55:30;7.50;99.90
14401;DHT22;7285;50.894;5.462;2023-04-10T05:57:58;7.60;99.90
14401;DHT22;7285;50.894;5.462;2023-04-10T06:00:25;7.70;99.90
14401;DHT22;7285;50.894;5.462;2023-04-10T06:02:52;7.70;99.90
14401;DHT22;7285;50.894;5.462;2023-04-10T06:05:19;7.80;1.00
14401;DHT22;7285;50.894;5.462;2023-04-10T06:07:46;7.90;1.00
14401;DHT22;7285;50.894;5.462;2023-04-10T06:10:13;7.90;1.00
14401;DHT22;7285;50.894;5.462;2023-04-10T06:12:40;8.00;1.00
14401;DHT22;7285;50.894;5.462;2023-04-10T06:15:09;8.10;1.00
14401;DHT22;7285;50.894;5.462;2023-04-10T06:17:40;8.20;1.00
14401;DHT22;7285;50.894;5.462;2023-04-10T06:20:09;8.30;99.90
14401;DHT22;7285;50.894;5.462;2023-04-10T06:22:36;8.40;99.90
14401;DHT22;7285;50.894;5.462;2023-04-10T06:25:03;8.50;99.90
14401;DHT22;7285;50.894;5.462;2023-04-10T06:27:32;8.60;99.90
14401;DHT22;7285;50.894;5.462;2023-04-10T06:29:59;8.80;99.90
14401;DHT22;7285;50.894;5.462;2023-04-10T06:32:27;8.90;99.90
14401;DHT22;7285;50.894;5.462;2023-04-10T06:34:54;9.00;99.90
14401;DHT22;7285;50.894;5.462;2023-04-10T06:37:26;9.20;99.90
14401;DHT22;7285;50.894;5.462;2023-04-10T06:40:01;9.30;99.90
14401;DHT22;7285;50.894;5.462;2023-04-10T06:42:28;9.40;99.90
14401;DHT22;7285;50.894;5.462;2023-04-10T06:44:55;9.60;99.90
14401;DHT22;7285;50.894;5.462;2023-04-10T06:47:22;9.70;99.90
14401;DHT22;7285;50.894;5.462;2023-04-10T06:49:50;9.90;99.90
14401;DHT22;7285;50.894;5.462;2023-04-10T06:52:17;10.10;99.90
14401;DHT22;7285;50.894;5.462;2023-04-10T06:54:44;10.20;99.90
14401;DHT22;7285;50.894;5.462;2023-04-10T06:57:11;10.30;99.90
14401;DHT22;7285;50.894;5.462;2023-04-10T06:59:38;10.50;99.90
14401;DHT22;7285;50.894;5.462;2023-04-10T07:02:05;10.50;99.90
14401;DHT22;7285;50.894;5.462;2023-04-10T07:04:33;10.60;99.90
14401;DHT22;7285;50.894;5.462;2023-04-10T07:07:01;10.60;8.40
14401;DHT22;7285;50.894;5.462;2023-04-10T07:09:29;10.70;4.40
14401;DHT22;7285;50.894;5.462;2023-04-10T07:11:56;10.80;5.70
14401;DHT22;7285;50.894;5.462;2023-04-10T07:14:23;10.80;1.00
14401;DHT22;7285;50.894;5.462;2023-04-10T07:16:50;10.90;1.00
14401;DHT22;7285;50.894;5.462;2023-04-10T07:19:18;10.90;1.00
14401;DHT22;7285;50.894;5.462;2023-04-10T07:21:45;11.00;1.00
14401;DHT22;7285;50.894;5.462;2023-04-10T07:24:16;11.10;1.00
14401;DHT22;7285;50.894;5.462;2023-04-10T07:26:43;11.20;1.00
14401;DHT22;7285;50.894;5.462;2023-04-10T07:29:10;11.20;1.00
14401;DHT22;7285;50.894;5.462;2023-04-10T07:31:37;11.30;1.00
14401;DHT22;7285;50.894;5.462;2023-04-10T07:34:04;11.40;1.00
14401;DHT22;7285;50.894;5.462;2023-04-10T07:36:31;11.40;1.00
14401;DHT22;7285;50.894;5.462;2023-04-10T07:38:58;11.50;1.00
14401;DHT22;7285;50.894;5.462;2023-04-10T07:41:27;11.50;1.00
14401;DHT22;7285;50.894;5.462;2023-04-10T07:43:54;11.60;1.00
14401;DHT22;7285;50.894;5.462;2023-04-10T07:46:21;11.70;1.00
14401;DHT22;7285;50.894;5.462;2023-04-10T07:48:48;11.70;1.00
14401;DHT22;7285;50.894;5.462;2023-04-10T07:51:15;11.70;1.00
14401;DHT22;7285;50.894;5.462;2023-04-10T07:53:42;11.80;1.00
14401;DHT22;7285;50.894;5.462;2023-04-10T07:56:14;12.00;1.00
14401;DHT22;7285;50.894;5.462;2023-04-10T07:58:43;12.00;1.00
14401;DHT22;7285;50.894;5.462;2023-04-10T08:01:10;12.10;1.00
14401;DHT22;7285;50.894;5.462;2023-04-10T08:03:38;12.30;1.00
14401;DHT22;7285;50.894;5.462;2023-04-10T08:06:06;12.40;1.00
14401;DHT22;7285;50.894;5.462;2023-04-10T08:08:34;12.50;1.00
14401;DHT22;7285;50.894;5.462;2023-04-10T08:11:02;12.60;1.00
14401;DHT22;7285;50.894;5.462;2023-04-10T08:13:29;12.90;1.00
14401;DHT22;7285;50.894;5.462;2023-04-10T08:15:57;13.10;1.00
14401;DHT22;7285;50.894;5.462;2023-04-10T08:18:24;13.40;1.00
14401;DHT22;7285;50.894;5.462;2023-04-10T08:20:51;13.40;1.00
14401;DHT22;7285;50.894;5.462;2023-04-10T08:23:18;13.40;1.00
14401;DHT22;7285;50.894;5.462;2023-04-10T08:25:45;13.40;1.00
14401;DHT22;7285;50.894;5.462;2023-04-10T08:28:12;13.40;1.00
14401;DHT22;7285;50.894;5.462;2023-04-10T08:30:39;13.40;1.00
14401;DHT22;7285;50.894;5.462;2023-04-10T08:33:07;13.50;1.00
14401;DHT22;7285;50.894;5.462;2023-04-10T08:35:34;13.50;1.00
14401;DHT22;7285;50.894;5.462;2023-04-10T08:38:01;13.40;1.00
14401;DHT22;7285;50.894;5.462;2023-04-10T08:40:28;13.60;1.00
14401;DHT22;7285;50.894;5.462;2023-04-10T08:42:55;13.70;1.00
14401;DHT22;7285;50.894;5.462;2023-04-10T08:45:22;13.70;1.00
14401;DHT22;7285;50.894;5.462;2023-04-10T08:47:50;13.80;1.00
14401;DHT22;7285;50.894;5.462;2023-04-10T08:50:20;13.80;1.00
14401;DHT22;7285;50.894;5.462;2023-04-10T08:52:50;13.80;1.00
14401;DHT22;7285;50.894;5.462;2023-04-10T08:55:18;13.90;1.00
14401;DHT22;7285;50.894;5.462;2023-04-10T08:57:46;14.10;1.00
14401;DHT22;7285;50.894;5.462;2023-04-10T09:00:14;14.20;1.00
14401;DHT22;7285;50.894;5.462;2023-04-10T09:02:41;14.20;1.00
14401;DHT22;7285;50.894;5.462;2023-04-10T09:05:10;14.20;1.00
14401;DHT22;7285;50.894;5.462;2023-04-10T09:07:39;14.40;1.00
14401;DHT22;7285;50.894;5.462;2023-04-10T09:10:07;14.50;1.00
14401;DHT22;7285;50.894;5.462;2023-04-10T09:12:44;14.60;1.00
14401;DHT22;7285;50.894;5.462;2023-04-10T09:15:12;14.60;1.00
14401;DHT22;7285;50.894;5.462;2023-04-10T09:17:55;14.60;1.00
14401;DHT22;7285;50.894;5.462;2023-04-10T09:20:23;14.60;1.00
14401;DHT22;7285;50.894;5.462;2023-04-10T09:22:52;14.60;1.00
14401;DHT22;7285;50.894;5.462;2023-04-10T09:25:28;14.70;1.00
14401;DHT22;7285;50.894;5.462;2023-04-10T09:27:59;14.80;1.00
14401;DHT22;7285;50.894;5.462;2023-04-10T09:30:32;14.90;1.00
14401;DHT22;7285;50.894;5.462;2023-04-10T09:33:00;15.20;1.00
14401;DHT22;7285;50.894;5.462;2023-04-10T09:35:35;15.00;1.00
14401;DHT22;7285;50.894;5.462;2023-04-10T09:38:15;15.00;1.00
14401;DHT22;7285;50.894;5.462;2023-04-10T09:40:43;15.00;1.00
14401;DHT22;7285;50.894;5.462;2023-04-10T09:43:18;15.00;1.00
14401;DHT22;7285;50.894;5.462;2023-04-10T09:45:49;15.10;1.00
14401;DHT22;7285;50.894;5.462;2023-04-10T09:48:17;15.00;1.00
14401;DHT22;7285;50.894;5.462;2023-04-10T09:50:44;15.00;1.00
14401;DHT22;7285;50.894;5.462;2023-04-10T09:53:14;14.90;1.00
14401;DHT22;7285;50.894;5.462;2023-04-10T09:55:42;14.90;1.00
14401;DHT22;7285;50.894;5.462;2023-04-10T09:58:09;15.00;1.00
14401;DHT22;7285;50.894;5.462;2023-04-10T10:00:41;14.90;1.00
14401;DHT22;7285;50.894;5.462;2023-04-10T10:03:11;14.90;1.00
14401;DHT22;7285;50.894;5.462;2023-04-10T10:05:40;15.10;1.00
14401;DHT22;7285;50.894;5.462;2023-04-10T10:08:09;15.10;1.00
14401;DHT22;7285;50.894;5.462;2023-04-10T10:10:42;15.20;1.00
14401;DHT22;7285;50.894;5.462;2023-04-10T10:13:14;15.40;1.00
14401;DHT22;7285;50.894;5.462;2023-04-10T10:15:48;15.40;1.00
14401;DHT22;7285;50.894;5.462;2023-04-10T10:18:21;15.60;1.00
14401;DHT22;7285;50.894;5.462;2023-04-10T10:20:52;15.80;1.00
14401;DHT22;7285;50.894;5.462;2023-04-10T10:23:19;15.80;1.00
14401;DHT22;7285;50.894;5.462;2023-04-10T10:25:49;15.90;1.00
14401;DHT22;7285;50.894;5.462;2023-04-10T10:28:17;16.10;1.00
14401;DHT22;7285;50.894;5.462;2023-04-10T10:30:46;16.30;1.00
14401;DHT22;7285;50.894;5.462;2023-04-10T10:33:13;16.40;1.00
14401;DHT22;7285;50.894;5.462;2023-04-10T10:35:40;16.40;1.00
14401;DHT22;7285;50.894;5.462;2023-04-10T10:38:08;16.30;1.00
14401;DHT22;7285;50.894;5.462;2023-04-10T10:40:41;16.70;1.00
14401;DHT22;7285;50.894;5.462;2023-04-10T10:43:15;16.90;1.00
14401;DHT22;7285;50.894;5.462;2023-04-10T10:45:49;16.70;1.00
14401;DHT22;7285;50.894;5.462;2023-04-10T10:48:18;16.60;1.00
14401;DHT22;7285;50.894;5.462;2023-04-10T10:50:52;16.70;1.00
14401;DHT22;7285;50.894;5.462;2023-04-10T10:53:39;16.80;1.00
14401;DHT22;7285;50.894;5.462;2023-04-10T10:56:33;16.80;1.00
14401;DHT22;7285;50.894;5.462;2023-04-10T10:59:02;17.00;1.00
14401;DHT22;7285;50.894;5.462;2023-04-10T11:01:29;17.20;1.00
14401;DHT22;7285;50.894;5.462;2023-04-10T11:03:56;17.30;1.00
14401;DHT22;7285;50.894;5.462;2023-04-10T11:06:49;17.50;1.00
14401;DHT22;7285;50.894;5.462;2023-04-10T11:09:44;17.70;1.00
14401;DHT22;7285;50.894;5.462;2023-04-10T11:12:12;17.90;1.00
14401;DHT22;7285;50.894;5.462;2023-04-10T11:14:41;18.10;1.00
14401;DHT22;7285;50.894;5.462;2023-04-10T11:17:09;18.40;1.00
14401;DHT22;7285;50.894;5.462;2023-04-10T11:19:55;18.50;1.00
14401;DHT22;7285;50.894;5.462;2023-04-10T11:22:22;18.50;1.00
14401;DHT22;7285;50.894;5.462;2023-04-10T11:24:57;18.50;1.00
14401;DHT22;7285;50.894;5.462;2023-04-10T11:27:38;18.60;1.00
14401;DHT22;7285;50.894;5.462;2023-04-10T11:30:28;18.20;1.00
14401;DHT22;7285;50.894;5.462;2023-04-10T11:32:55;18.30;1.00
14401;DHT22;7285;50.894;5.462;2023-04-10T11:35:24;18.30;1.00
14401;DHT22;7285;50.894;5.462;2023-04-10T11:37:51;18.30;1.00
14401;DHT22;7285;50.894;5.462;2023-04-10T11:40:18;18.80;1.00
14401;DHT22;7285;50.894;5.462;2023-04-10T11:42:44;19.20;1.00
14401;DHT22;7285;50.894;5.462;2023-04-10T11:45:23;19.40;1.00
14401;DHT22;7285;50.894;5.462;2023-04-10T11:47:52;19.20;1.00
14401;DHT22;7285;50.894;5.462;2023-04-10T11:50:20;19.20;1.00
14401;DHT22;7285;50.894;5.462;2023-04-10T11:52:48;19.40;1.00
14401;DHT22;7285;50.894;5.462;2023-04-10T11:55:16;19.30;1.00
14401;DHT22;7285;50.894;5.462;2023-04-10T11:57:44;18.90;1.00
14401;DHT22;7285;50.894;5.462;2023-04-10T12:00:21;19.20;1.00
14401;DHT22;7285;50.894;5.462;2023-04-10T12:02:50;19.30;1.00
14401;DHT22;7285;50.894;5.462;2023-04-10T12:05:19;19.30;1.00
14401;DHT22;7285;50.894;5.462;2023-04-10T12:07:48;19.30;1.00
14401;DHT22;7285;50.894;5.462;2023-04-10T12:10:15;19.30;1.00
14401;DHT22;7285;50.894;5.462;2023-04-10T12:12:42;19.40;1.00
14401;DHT22;7285;50.894;5.462;2023-04-10T12:15:25;19.40;1.00
14401;DHT22;7285;50.894;5.462;2023-04-10T12:17:53;19.20;1.00
14401;DHT22;7285;50.894;5.462;2023-04-10T12:20:21;19.00;1.00
14401;DHT22;7285;50.894;5.462;2023-04-10T12:22:53;19.00;1.00
14401;DHT22;7285;50.894;5.462;2023-04-10T12:25:25;19.00;1.00
14401;DHT22;7285;50.894;5.462;2023-04-10T12:27:52;19.20;1.00
14401;DHT22;7285;50.894;5.462;2023-04-10T12:30:19;19.50;1.00
14401;DHT22;7285;50.894;5.462;2023-04-10T12:32:50;20.10;1.00
14401;DHT22;7285;50.894;5.462;2023-04-10T12:35:18;19.90;1.00
14401;DHT22;7285;50.894;5.462;2023-04-10T12:37:48;20.10;1.00
14401;DHT22;7285;50.894;5.462;2023-04-10T12:40:15;19.80;99.90
14401;DHT22;7285;50.894;5.462;2023-04-10T12:42:43;19.70;1.00
14401;DHT22;7285;50.894;5.462;2023-04-10T12:45:12;19.90;1.00
14401;DHT22;7285;50.894;5.462;2023-04-10T12:47:44;20.10;1.00
14401;DHT22;7285;50.894;5.462;2023-04-10T12:50:13;20.60;1.00
14401;DHT22;7285;50.894;5.462;2023-04-10T12:52:43;20.90;1.00
14401;DHT22;7285;50.894;5.462;2023-04-10T12:55:13;21.00;1.00
14401;DHT22;7285;50.894;5.462;2023-04-10T12:57:42;20.30;99.90
14401;DHT22;7285;50.894;5.462;2023-04-10T13:00:11;19.80;99.90
14401;DHT22;7285;50.894;5.462;2023-04-10T13:02:39;19.50;99.90
14401;DHT22;7285;50.894;5.462;2023-04-10T13:05:07;19.30;99.90
14401;DHT22;7285;50.894;5.462;2023-04-10T13:07:34;19.20;99.90
14401;DHT22;7285;50.894;5.462;2023-04-10T13:10:02;19.00;1.00
14401;DHT22;7285;50.894;5.462;2023-04-10T13:12:31;18.80;1.00
14401;DHT22;7285;50.894;5.462;2023-04-10T13:14:59;18.80;1.00
14401;DHT22;7285;50.894;5.462;2023-04-10T13:17:26;18.70;1.00
14401;DHT22;7285;50.894;5.462;2023-04-10T13:19:53;18.60;1.00
14401;DHT22;7285;50.894;5.462;2023-04-10T13:22:20;18.50;1.00
14401;DHT22;7285;50.894;5.462;2023-04-10T13:24:47;18.50;1.00
14401;DHT22;7285;50.894;5.462;2023-04-10T13:27:14;18.30;1.00
14401;DHT22;7285;50.894;5.462;2023-04-10T13:29:42;18.20;1.00
14401;DHT22;7285;50.894;5.462;2023-04-10T13:32:09;18.20;1.00
14401;DHT22;7285;50.894;5.462;2023-04-10T13:34:36;18.20;1.00
14401;DHT22;7285;50.894;5.462;2023-04-10T13:37:03;18.20;1.00
14401;DHT22;7285;50.894;5.462;2023-04-10T13:39:30;18.10;1.00
14401;DHT22;7285;50.894;5.462;2023-04-10T13:41:58;18.00;1.00
14401;DHT22;7285;50.894;5.462;2023-04-10T13:44:26;17.90;1.00
14401;DHT22;7285;50.894;5.462;2023-04-10T13:46:55;17.90;1.00
14401;DHT22;7285;50.894;5.462;2023-04-10T13:49:22;17.70;1.00
14401;DHT22;7285;50.894;5.462;2023-04-10T13:51:49;17.60;1.00
14401;DHT22;7285;50.894;5.462;2023-04-10T13:54:16;17.50;1.00
14401;DHT22;7285;50.894;5.462;2023-04-10T13:56:44;17.40;1.00
14401;DHT22;7285;50.894;5.462;2023-04-10T13:59:11;17.40;1.00
14401;DHT22;7285;50.894;5.462;2023-04-10T14:01:38;17.50;1.00
14401;DHT22;7285;50.894;5.462;2023-04-10T14:04:06;17.50;1.00
14401;DHT22;7285;50.894;5.462;2023-04-10T14:06:33;17.50;1.00
14401;DHT22;7285;50.894;5.462;2023-04-10T14:09:00;17.30;1.00
14401;DHT22;7285;50.894;5.462;2023-04-10T14:11:27;17.10;1.00
14401;DHT22;7285;50.894;5.462;2023-04-10T14:13:54;17.10;1.00
14401;DHT22;7285;50.894;5.462;2023-04-10T14:16:21;16.90;1.00
14401;DHT22;7285;50.894;5.462;2023-04-10T14:18:48;16.70;1.00
14401;DHT22;7285;50.894;5.462;2023-04-10T14:21:16;16.50;1.00
14401;DHT22;7285;50.894;5.462;2023-04-10T14:23:43;16.30;1.00
14401;DHT22;7285;50.894;5.462;2023-04-10T14:26:10;16.00;1.00
14401;DHT22;7285;50.894;5.462;2023-04-10T14:28:37;15.90;1.00
14401;DHT22;7285;50.894;5.462;2023-04-10T14:31:04;15.70;1.00
14401;DHT22;7285;50.894;5.462;2023-04-10T14:33:32;15.50;1.00
14401;DHT22;7285;50.894;5.462;2023-04-10T14:35:59;15.40;1.00
14401;DHT22;7285;50.894;5.462;2023-04-10T14:38:27;15.30;1.00
14401;DHT22;7285;50.894;5.462;2023-04-10T14:40:54;15.10;1.00
14401;DHT22;7285;50.894;5.462;2023-04-10T14:43:21;14.90;1.00
14401;DHT22;7285;50.894;5.462;2023-04-10T14:45:48;14.80;1.00
14401;DHT22;7285;50.894;5.462;2023-04-10T14:48:15;14.70;1.00
14401;DHT22;7285;50.894;5.462;2023-04-10T14:50:44;14.60;1.00
14401;DHT22;7285;50.894;5.462;2023-04-10T14:53:11;14.60;1.00
14401;DHT22;7285;50.894;5.462;2023-04-10T14:55:39;14.60;1.00
14401;DHT22;7285;50.894;5.462;2023-04-10T14:58:06;14.70;1.00
14401;DHT22;7285;50.894;5.462;2023-04-10T15:00:34;14.70;1.00
14401;DHT22;7285;50.894;5.462;2023-04-10T15:03:00;14.80;1.00
14401;DHT22;7285;50.894;5.462;2023-04-10T15:05:29;14.90;1.00
14401;DHT22;7285;50.894;5.462;2023-04-10T15:07:57;15.10;1.00
14401;DHT22;7285;50.894;5.462;2023-04-10T15:10:24;15.20;1.00
14401;DHT22;7285;50.894;5.462;2023-04-10T15:12:53;15.30;1.00
14401;DHT22;7285;50.894;5.462;2023-04-10T15:15:20;15.40;1.00
14401;DHT22;7285;50.894;5.462;2023-04-10T15:17:47;15.60;1.00
14401;DHT22;7285;50.894;5.462;2023-04-10T15:20:14;15.70;1.00
14401;DHT22;7285;50.894;5.462;2023-04-10T15:22:41;15.70;1.00
14401;DHT22;7285;50.894;5.462;2023-04-10T15:25:09;15.70;1.00
14401;DHT22;7285;50.894;5.462;2023-04-10T15:27:36;15.70;1.00
14401;DHT22;7285;50.894;5.462;2023-04-10T15:30:06;15.70;1.00
14401;DHT22;7285;50.894;5.462;2023-04-10T15:32:35;15.60;1.00
14401;DHT22;7285;50.894;5.462;2023-04-10T15:35:03;15.60;1.00
14401;DHT22;7285;50.894;5.462;2023-04-10T15:37:30;15.60;1.00
14401;DHT22;7285;50.894;5.462;2023-04-10T15:39:57;15.50;1.00
14401;DHT22;7285;50.894;5.462;2023-04-10T15:42:24;15.40;1.00
14401;DHT22;7285;50.894;5.462;2023-04-10T15:44:51;15.30;1.00
14401;DHT22;7285;50.894;5.462;2023-04-10T15:47:19;15.10;1.00
14401;DHT22;7285;50.894;5.462;2023-04-10T15:49:46;15.20;1.00
14401;DHT22;7285;50.894;5.462;2023-04-10T15:52:13;15.10;1.00
14401;DHT22;7285;50.894;5.462;2023-04-10T15:54:39;15.10;1.00
14401;DHT22;7285;50.894;5.462;2023-04-10T15:57:07;15.10;1.00
14401;DHT22;7285;50.894;5.462;2023-04-10T15:59:34;15.10;1.00
14401;DHT22;7285;50.894;5.462;2023-04-10T16:02:01;15.10;1.00
14401;DHT22;7285;50.894;5.462;2023-04-10T16:04:29;15.00;1.00
14401;DHT22;7285;50.894;5.462;2023-04-10T16:06:56;14.70;1.00
14401;DHT22;7285;50.894;5.462;2023-04-10T16:09:23;14.70;1.00
14401;DHT22;7285;50.894;5.462;2023-04-10T16:11:50;14.70;1.00
14401;DHT22;7285;50.894;5.462;2023-04-10T16:14:17;14.70;1.00